Flight Track Log - Related Links

Times and Time Zones

All times are in EDT time to prevent confusion due to time zone crossing. See the SWA655 flight status page for this flight to view local times or setup timezone preferences in your user account.

Time Position Orientation Groundspeed Altitude Reporting Facility
EDT Latitude Longitude Course Direction KTS MPH feet Rate Location/Type
Sun 08:56:21 PM 36.0761 -115.1683 267° West 153 176 3,300  Level Los Angeles Center
Sun 08:57:22 PM 36.0725 -115.2411 267° West 212 244 5,200 1,748 Climbing Los Angeles Center
Sun 08:58:04 PM 36.0344 -115.2694 211° Southwest 237 273 6,300 1,700 Climbing Los Angeles Center
Sun 08:58:22 PM 36.0122 -115.2822 205° Southwest 267 307 6,900 774 Climbing Los Angeles Center
Sun 08:59:06 PM 35.9619 -115.2972 194° South 265 305 7,100 492 Climbing Los Angeles Center
Sun 08:59:23 PM 35.9386 -115.2906 167° South 283 326 7,400 2,323 Climbing Los Angeles Center
Sun 09:00:08 PM 35.9067 -115.2339 125° Southeast 281 323 9,500 2,434 Climbing Los Angeles Center
Sun 09:01:09 PM 35.9106 -115.1247 87° East 319 367 11,700 2,585 Climbing Los Angeles Center
Sun 09:02:11 PM 35.9133 -114.9989 88° East 355 409 14,800 2,855 Climbing Los Angeles Center
Sun 09:03:13 PM 35.9142 -114.8678 90° East 376 433 17,600 2,661 Climbing Los Angeles Center
Sun 09:04:15 PM 35.9158 -114.7014 89° East 398 458 20,300 2,468 Climbing Los Angeles Center
Sun 09:05:17 PM 35.9175 -114.5525 89° East 423 487 22,700 2,226 Climbing Los Angeles Center
Sun 09:06:19 PM 35.9186 -114.3994 89° East 440 506 24,900 1,984 Climbing Los Angeles Center
Sun 09:07:21 PM 35.9197 -114.2447 89° East 449 517 26,800 1,742 Climbing Los Angeles Center
Sun 09:08:23 PM 35.9211 -114.0850 89° East 461 531 28,500 1,500 Climbing Los Angeles Center
Sun 09:09:25 PM 35.9214 -113.9200 90° East 474 545 29,900 1,548 Climbing Los Angeles Center
Sun 09:10:27 PM 35.8933 -113.7175 100° East 499 574 31,700 1,694 Climbing Los Angeles Center
Sun 09:11:29 PM 35.8706 -113.5650 100° East 501 577 33,400 1,452 Climbing Los Angeles Center
Sun 09:12:31 PM 35.8447 -113.4000 101° East 496 571 34,700 1,161 Climbing Los Angeles Center
Sun 09:13:33 PM 35.8175 -113.2339 101° East 495 570 35,800 1,065 Climbing Los Angeles Center
Sun 09:14:35 PM 35.7839 -113.0308 101° East 501 577 36,900 581 Climbing Los Angeles Center
Sun 09:15:37 PM 35.7567 -112.8592 101° East 506 582 37,000 48 Climbing Los Angeles Center
Sun 09:16:39 PM 35.7275 -112.6883 102° East 508 585 37,000  Level Los Angeles Center
Sun 09:17:41 PM 35.7006 -112.5189 101° East 505 581 37,000  Level Los Angeles Center
Sun 09:18:42 PM 35.6931 -112.3817 94° East 505 581 37,000  Level Los Angeles Center
Sun 09:19:45 PM 35.6847 -112.1781 93° East 499 574 37,000  Level Los Angeles Center
Sun 09:20:47 PM 35.6769 -112.0069 93° East 502 578 37,000  Level Los Angeles Center
Sun 09:21:49 PM 35.6675 -111.8039 93° East 498 573 37,000  Level Los Angeles Center
Sun 09:22:51 PM 35.6589 -111.6342 94° East 501 577 37,000  Level Los Angeles Center
Sun 09:23:52 PM 35.6497 -111.4647 94° East 508 585 37,000  Level Los Angeles Center
Sun 09:24:54 PM 35.6411 -111.2908 93° East 511 588 37,000  Level Los Angeles Center
Sun 09:26:05 PM 35.6275 -111.0589 94° East 514 592 37,000  Level Albuquerque Center
Sun 09:27:07 PM 35.6189 -110.8911 94° East 515 593 37,000  Level Albuquerque Center
Sun 09:28:08 PM 35.6067 -110.6942 94° East 517 595 37,000  Level Albuquerque Center
Sun 09:29:10 PM 35.5972 -110.5258 94° East 517 595 37,000  Level Albuquerque Center
Sun 09:30:11 PM 35.5858 -110.3597 95° East 513 590 37,000  Level Albuquerque Center
Sun 09:31:13 PM 35.5764 -110.1642 93° East 514 592 37,000  Level Albuquerque Center
Sun 09:32:14 PM 35.5653 -109.9956 95° East 516 594 37,000  Level Albuquerque Center
Sun 09:33:16 PM 35.5539 -109.7981 94° East 519 597 37,000  Level Albuquerque Center
Sun 09:34:17 PM 35.5425 -109.6311 95° East 517 595 37,000  Level Albuquerque Center
Sun 09:35:18 PM 35.5319 -109.4631 94° East 517 595 37,000  Level Albuquerque Center
Sun 09:36:20 PM 35.5189 -109.2672 95° East 518 596 37,000  Level Albuquerque Center
Sun 09:37:21 PM 35.5067 -109.1008 95° East 515 593 37,000  Level Albuquerque Center
Sun 09:38:23 PM 35.4936 -108.9069 95° East 514 592 37,000  Level Albuquerque Center
Sun 09:39:24 PM 35.4814 -108.7406 95° East 514 592 37,000  Level Albuquerque Center
Sun 09:40:26 PM 35.4669 -108.5461 95° East 515 593 37,000  Level Albuquerque Center
Sun 09:41:27 PM 35.4556 -108.3797 95° East 515 593 37,000  Level Albuquerque Center
Sun 09:42:28 PM 35.4397 -108.1861 96° East 513 590 37,000  Level Albuquerque Center
Sun 09:43:30 PM 35.4278 -108.0183 95° East 515 593 37,000  Level Albuquerque Center
Sun 09:44:31 PM 35.4131 -107.8547 96° East 509 586 37,000  Level Albuquerque Center
Sun 09:45:33 PM 35.3969 -107.6625 96° East 508 585 37,000  Level Albuquerque Center
Sun 09:46:34 PM 35.3831 -107.4969 96° East 510 587 37,000  Level Albuquerque Center
Sun 09:47:36 PM 35.3669 -107.3044 96° East 510 587 37,000  Level Albuquerque Center
Sun 09:48:37 PM 35.3511 -107.1389 97° East 512 589 37,000  Level Albuquerque Center
Sun 09:49:38 PM 35.3358 -106.9747 96° East 509 586 37,000  Level Albuquerque Center
Sun 09:50:40 PM 35.3211 -106.7828 95° East 506 582 37,000  Level Albuquerque Center
Sun 09:51:41 PM 35.3081 -106.6172 95° East 510 587 37,000  Level Albuquerque Center
Sun 09:52:42 PM 35.2883 -106.4369 98° East 514 592 37,000  Level Albuquerque Center
Sun 09:53:44 PM 35.2728 -106.2642 96° East 511 588 37,000  Level Albuquerque Center
Sun 09:54:45 PM 35.2531 -106.0792 97° East 508 585 37,000  Level Albuquerque Center
Sun 09:55:46 PM 35.2361 -105.9042 97° East 513 590 37,000  Level Albuquerque Center
Sun 09:56:48 PM 35.2203 -105.7283 96° East 516 594 37,000  Level Albuquerque Center
Sun 09:57:49 PM 35.2017 -105.5542 97° East 514 592 37,000  Level Albuquerque Center
Sun 09:58:50 PM 35.1858 -105.3806 96° East 512 589 37,000  Level Albuquerque Center
Sun 09:59:52 PM 35.1667 -105.2078 98° East 510 587 37,000  Level Albuquerque Center
Sun 10:00:53 PM 35.1489 -105.0353 97° East 509 586 37,000  Level Albuquerque Center
Sun 10:01:54 PM 35.1300 -104.8656 98° East 504 580 37,000  Level Albuquerque Center
Sun 10:02:55 PM 35.1125 -104.6950 97° East 503 579 37,000  Level Albuquerque Center
Sun 10:03:57 PM 35.0942 -104.5194 97° East 505 581 37,000  Level Albuquerque Center
Sun 10:04:58 PM 35.0725 -104.3264 98° East 505 581 37,000 246 Level Albuquerque Center
Sun 10:05:59 PM 35.0525 -104.1542 98° East 515 593 37,500 927 Climbing Albuquerque Center
Sun 10:07:01 PM 35.0333 -103.9803 98° East 520 598 38,900 732 Climbing Albuquerque Center
Sun 10:08:02 PM 35.0144 -103.8092 98° East 513 590 39,000 49 Climbing Albuquerque Center
Sun 10:09:03 PM 34.9939 -103.6369 98° East 511 588 39,000  Level Albuquerque Center
Sun 10:10:05 PM 34.9733 -103.4653 98° East 509 586 39,000  Level Albuquerque Center
Sun 10:11:06 PM 34.9542 -103.2950 98° East 506 582 39,000  Level Albuquerque Center
Sun 10:12:07 PM 34.9342 -103.1247 98° East 505 581 39,000  Level Albuquerque Center
Sun 10:13:09 PM 34.9136 -102.9558 98° East 502 578 39,000  Level Albuquerque Center
Sun 10:14:10 PM 34.8883 -102.7592 99° East 501 577 39,000  Level Albuquerque Center
Sun 10:15:11 PM 34.8689 -102.6200 100° East 501 577 39,000  Level Albuquerque Center
Sun 10:16:13 PM 34.8447 -102.4200 98° East 501 577 39,000  Level Albuquerque Center
Sun 10:17:14 PM 34.8236 -102.2531 99° East 502 578 39,000  Level Albuquerque Center
Sun 10:18:15 PM 34.8019 -102.0861 99° East 503 579 39,000  Level Albuquerque Center
Sun 10:19:16 PM 34.7806 -101.9194 99° East 504 580 39,000  Level Albuquerque Center
Sun 10:20:18 PM 34.7578 -101.7536 99° East 504 580 39,000  Level Albuquerque Center
Sun 10:21:19 PM 34.7353 -101.5872 99° East 504 580 39,000  Level Albuquerque Center
Sun 10:22:20 PM 34.7119 -101.4181 99° East 508 585 39,000  Level Albuquerque Center
Sun 10:23:22 PM 34.6853 -101.2147 99° East 511 588 39,000  Level Albuquerque Center
Sun 10:24:23 PM 34.6622 -101.0458 99° East 511 588 39,000  Level Albuquerque Center
Sun 10:25:24 PM 34.6394 -100.8769 99° East 510 587 39,000  Level Albuquerque Center
Sun 10:26:26 PM 34.6156 -100.7092 100° East 509 586 39,000  Level Albuquerque Center
Sun 10:27:27 PM 34.5908 -100.5417 100° East 506 582 39,000  Level Albuquerque Center
Sun 10:28:28 PM 34.5664 -100.3758 100° East 503 579 39,000  Level Albuquerque Center
Sun 10:29:30 PM 34.5425 -100.2089 100° East 504 580 39,000  Level Albuquerque Center
Sun 10:30:21 PM 34.5189 -100.0472 100° East 506 582 39,000  Level Fort Worth Center
Sun 10:31:20 PM 34.4953 -99.8828 100° East 506 582 39,000  Level Fort Worth Center
Sun 10:32:20 PM 34.4689 -99.7308 102° East 506 582 39,000  Level Fort Worth Center
Sun 10:33:20 PM 34.4469 -99.5617 99° East 506 582 39,000  Level Fort Worth Center
Sun 10:34:23 PM 34.4206 -99.3972 101° East 506 582 39,000  Level Fort Worth Center
Sun 10:35:20 PM 34.3958 -99.2281 100° East 501 577 39,000  Level Fort Worth Center
Sun 10:36:21 PM 34.3689 -99.0717 102° East 496 571 39,000  Level Fort Worth Center
Sun 10:37:23 PM 34.3417 -98.9025 101° East 490 564 39,000  Level Fort Worth Center
Sun 10:38:20 PM 34.3164 -98.7411 101° East 490 564 39,000  Level Fort Worth Center
Sun 10:39:20 PM 34.2869 -98.5722 102° East 490 564 39,000  Level Fort Worth Center
Sun 10:40:22 PM 34.2633 -98.4111 100° East 490 564 39,000  Level Fort Worth Center
Sun 10:41:20 PM 34.2353 -98.2475 102° East 490 564 39,000  Level Fort Worth Center
Sun 10:42:20 PM 34.2092 -98.0867 101° East 490 564 39,000  Level Fort Worth Center
Sun 10:43:20 PM 34.1806 -97.9206 102° East 490 564 39,000  Level Fort Worth Center
Sun 10:45:20 PM 34.1253 -97.5892 101° East 495 570 39,000  Level Fort Worth Center
Sun 10:46:20 PM 34.0919 -97.4086 103° East 495 570 39,000  Level Fort Worth Center
Sun 10:47:20 PM 34.0731 -97.2506 98° East 512 589 39,000  Level Fort Worth Center
Sun 10:48:22 PM 34.0436 -97.0878 102° East 507 583 39,000  Level Fort Worth Center
Sun 10:49:22 PM 34.0139 -96.9197 102° East 507 583 39,000  Level Fort Worth Center
Sun 10:50:21 PM 33.9839 -96.7547 102° East 507 583 39,000  Level Fort Worth Center
Sun 10:51:22 PM 33.9536 -96.5722 101° East 507 583 39,000  Level Fort Worth Center
Sun 10:52:23 PM 33.9253 -96.4072 102° East 507 583 39,000  Level Fort Worth Center
Sun 10:53:20 PM 33.8925 -96.2350 103° East 507 583 39,000  Level Fort Worth Center
Sun 10:54:20 PM 33.8614 -96.0703 103° East 507 583 39,000  Level Fort Worth Center
Sun 10:55:21 PM 33.8325 -95.9056 102° East 507 583 39,000  Level Fort Worth Center
Sun 10:56:22 PM 33.8033 -95.7411 102° East 507 583 39,000  Level Fort Worth Center
Sun 10:57:22 PM 33.7719 -95.5919 104° East 507 583 39,000  Level Fort Worth Center
Sun 10:58:20 PM 33.7403 -95.4328 103° East 501 577 39,000  Level Fort Worth Center
Sun 10:59:22 PM 33.7086 -95.2711 103° East 501 577 39,000  Level Fort Worth Center
Sun 11:00:22 PM 33.6764 -95.1047 103° East 501 577 39,000  Level Fort Worth Center
Sun 11:01:20 PM 33.6481 -94.9383 102° East 506 582 39,000  Level Fort Worth Center
Sun 11:02:20 PM 33.6053 -94.7747 107° East 506 582 39,000  Level Fort Worth Center
Sun 11:03:20 PM 33.5536 -94.6169 111° Southeast 506 582 39,000  Level Fort Worth Center
Sun 11:04:22 PM 33.5022 -94.4592 111° Southeast 506 582 39,000  Level Fort Worth Center
Sun 11:05:21 PM 33.4503 -94.2989 111° Southeast 506 582 39,000  Level Fort Worth Center
Sun 11:06:22 PM 33.4006 -94.1464 111° Southeast 506 582 39,000  Level Fort Worth Center
Sun 11:07:22 PM 33.3456 -93.9694 110° East 506 582 39,000  Level Fort Worth Center
Sun 11:08:20 PM 33.2914 -93.8175 113° Southeast 506 582 39,000  Level Fort Worth Center
Sun 11:09:21 PM 33.2508 -93.6503 106° East 515 593 39,000  Level Fort Worth Center
Sun 11:10:22 PM 33.2208 -93.4878 102° East 509 586 39,000  Level Fort Worth Center
Sun 11:11:23 PM 33.1928 -93.3253 102° East 509 586 39,000  Level Fort Worth Center
Sun 11:12:20 PM 33.1603 -93.1653 104° East 509 586 39,000  Level Fort Worth Center
Sun 11:13:22 PM 33.1297 -93.0031 103° East 504 580 39,000  Level Fort Worth Center
Sun 11:14:23 PM 33.0967 -92.8411 104° East 504 580 39,000  Level Fort Worth Center
Sun 11:15:20 PM 33.0658 -92.6792 103° East 504 580 39,000  Level Fort Worth Center
Sun 11:16:22 PM 33.0344 -92.5172 103° East 504 580 39,000  Level Fort Worth Center
Sun 11:18:20 PM 32.9653 -92.1969 104° East 501 577 39,000  Level Memphis Center
Sun 11:19:20 PM 32.9342 -92.0403 103° East 496 571 39,000  Level Memphis Center
Sun 11:20:20 PM 32.8964 -91.8814 106° East 490 564 39,000  Level Memphis Center
Sun 11:21:20 PM 32.8628 -91.7200 104° East 495 570 39,000  Level Memphis Center
Sun 11:22:20 PM 32.8331 -91.5639 103° East 490 564 39,000  Level Memphis Center
Sun 11:23:20 PM 32.7992 -91.4053 104° East 490 564 39,000  Level Memphis Center
Sun 11:24:20 PM 32.7669 -91.2492 104° East 490 564 39,000  Level Memphis Center
Sun 11:25:20 PM 32.7325 -91.0958 105° East 490 564 39,000  Level Memphis Center
Sun 11:26:20 PM 32.7019 -90.9497 104° East 490 564 39,000  Level Memphis Center
Sun 11:27:20 PM 32.6669 -90.7967 105° East 490 564 39,000  Level Memphis Center
Sun 11:28:20 PM 32.6342 -90.6361 104° East 490 564 39,000  Level Memphis Center
Sun 11:29:20 PM 32.5989 -90.4806 105° East 490 564 39,000  Level Memphis Center
Sun 11:30:20 PM 32.5656 -90.3203 104° East 490 564 39,000  Level Memphis Center
Sun 11:31:20 PM 32.5278 -90.1628 106° East 490 564 39,000  Level Memphis Center
Sun 11:32:20 PM 32.4939 -90.0050 104° East 490 564 39,000  Level Memphis Center
Sun 11:33:20 PM 32.4600 -89.8478 104° East 490 564 39,000  Level Memphis Center
Sun 11:34:20 PM 32.4239 -89.6928 105° East 490 564 39,000  Level Memphis Center
Sun 11:35:20 PM 32.3853 -89.5233 105° East 490 564 39,000  Level Memphis Center
Sun 11:36:20 PM 32.3506 -89.3689 105° East 485 558 39,000  Level Memphis Center
Sun 11:37:20 PM 32.3158 -89.2167 105° East 485 558 39,000  Level Memphis Center
Sun 11:38:20 PM 32.2811 -89.0647 105° East 485 558 39,000  Level Memphis Center
Sun 11:39:20 PM 32.2458 -88.9131 105° East 480 552 39,000  Level Memphis Center
Sun 11:41:42 PM 32.1625 -88.5653 106° East 460 529 39,000  Level Atlanta Center
Sun 11:42:42 PM 32.1283 -88.4139 105° East 465 535 39,000  Level Atlanta Center
Sun 11:43:42 PM 32.0917 -88.2628 106° East 470 541 39,000  Level Atlanta Center
Sun 11:44:42 PM 32.0553 -88.1114 106° East 475 547 39,000  Level Atlanta Center
Sun 11:45:42 PM 32.0183 -87.9606 106° East 475 547 39,000  Level Atlanta Center
Sun 11:46:42 PM 31.9814 -87.8069 106° East 480 552 39,000  Level Atlanta Center
Sun 11:49:03 PM 31.8792 -87.4747 110° East 477 549 39,000  Level Jacksonville Center
Sun 11:50:03 PM 31.8128 -87.3419 120° Southeast 477 549 39,000  Level Jacksonville Center
Sun 11:51:03 PM 31.7344 -87.1964 122° Southeast 482 555 39,000  Level Jacksonville Center
Sun 11:52:03 PM 31.6658 -87.0639 121° Southeast 482 555 39,000  Level Jacksonville Center
Sun 11:53:03 PM 31.5969 -86.9292 121° Southeast 482 555 39,000  Level Jacksonville Center
Sun 11:54:03 PM 31.5281 -86.7944 121° Southeast 487 560 39,000  Level Jacksonville Center
Sun 11:55:03 PM 31.4611 -86.6628 121° Southeast 487 560 39,000  Level Jacksonville Center
Sun 11:56:03 PM 31.3919 -86.5308 122° Southeast 487 560 39,000  Level Jacksonville Center
Sun 11:57:03 PM 31.3308 -86.4094 120° Southeast 487 560 39,000  Level Jacksonville Center
Sun 11:58:03 PM 31.2614 -86.2756 121° Southeast 487 560 39,000  Level Jacksonville Center
Sun 11:59:03 PM 31.1917 -86.1419 121° Southeast 487 560 39,000  Level Jacksonville Center
Mon 12:00:03 AM 31.1239 -86.0108 121° Southeast 487 560 39,000  Level Jacksonville Center
Mon 12:01:03 AM 31.0564 -85.8753 120° Southeast 487 560 39,000  Level Jacksonville Center
Mon 12:02:03 AM 30.9861 -85.7422 122° Southeast 487 560 39,000  Level Jacksonville Center
Mon 12:03:03 AM 30.9161 -85.6094 122° Southeast 481 554 39,000  Level Jacksonville Center
Mon 12:04:03 AM 30.8458 -85.4767 122° Southeast 481 554 39,000  Level Jacksonville Center
Mon 12:05:03 AM 30.7753 -85.3442 122° Southeast 486 559 39,000  Level Jacksonville Center
Mon 12:06:03 AM 30.7028 -85.2094 122° Southeast 486 559 39,000  Level Jacksonville Center
Mon 12:07:03 AM 30.6258 -85.0628 121° Southeast 486 559 39,000  Level Jacksonville Center
Mon 12:08:03 AM 30.5531 -84.9286 122° Southeast 486 559 39,000  Level Jacksonville Center
Mon 12:09:03 AM 30.4819 -84.7944 122° Southeast 492 566 39,000  Level Jacksonville Center
Mon 12:10:03 AM 30.4108 -84.6606 122° Southeast 487 560 39,000  Level Jacksonville Center
Mon 12:11:03 AM 30.3333 -84.5267 124° Southeast 487 560 39,000  Level Jacksonville Center
Mon 12:12:03 AM 30.2639 -84.3908 121° Southeast 487 560 39,000  Level Jacksonville Center
Mon 12:13:03 AM 30.1883 -84.2600 124° Southeast 487 560 39,000  Level Jacksonville Center
Mon 12:14:03 AM 30.1267 -84.1414 121° Southeast 481 554 39,000 -300 Level Jacksonville Center
Mon 12:15:03 AM 30.0508 -84.0083 123° Southeast 481 554 38,400 -750 Descending Jacksonville Center
Mon 12:16:03 AM 29.9789 -83.8733 122° Southeast 487 560 37,500 -950 Descending Jacksonville Center
Mon 12:17:03 AM 29.9067 -83.7383 122° Southeast 492 566 36,500 -950 Descending Jacksonville Center
Mon 12:18:03 AM 29.8303 -83.6036 123° Southeast 497 572 35,600 -950 Descending Jacksonville Center
Mon 12:19:03 AM 29.7536 -83.4692 123° Southeast 497 572 34,600 -1,000 Descending Jacksonville Center
Mon 12:20:03 AM 29.6811 -83.3397 123° Southeast 497 572 33,600 -1,000 Descending Jacksonville Center
Mon 12:21:03 AM 29.6086 -83.2078 122° Southeast 492 566 32,600 -1,050 Descending Jacksonville Center
Mon 12:22:03 AM 29.5378 -83.0811 123° Southeast 486 559 31,500 -1,750 Descending Jacksonville Center
Mon 12:23:03 AM 29.4564 -82.9403 124° Southeast 486 559 29,100 -2,250 Descending Jacksonville Center
Mon 12:24:03 AM 29.3917 -82.8211 122° Southeast 469 540 27,000 -2,050 Descending Jacksonville Center
Mon 12:25:03 AM 29.3247 -82.7019 123° Southeast 457 526 25,000 -2,050 Descending Jacksonville Center
Mon 12:26:03 AM 29.2578 -82.5881 124° Southeast 439 505 22,900 -2,050 Descending Jacksonville Center
Mon 12:27:03 AM 29.1969 -82.4811 123° Southeast 420 483 20,900 -1,950 Descending Jacksonville Center
Mon 12:28:03 AM 29.1361 -82.3767 124° Southeast 410 472 19,000 -1,750 Descending Jacksonville Center
Mon 12:29:03 AM 29.0792 -82.2772 123° Southeast 388 447 17,400 -1,800 Descending Jacksonville Center
Mon 12:30:03 AM 29.0244 -82.1778 122° Southeast 378 435 15,400 -1,900 Descending Jacksonville Center
Mon 12:31:03 AM 28.9717 -82.0833 123° Southeast 367 422 13,600 -1,500 Descending Jacksonville Center
Mon 12:32:03 AM 28.9275 -82.0053 123° Southeast 351 404 12,400 -1,100 Descending Jacksonville Center
Mon 12:33:03 AM 28.8808 -81.9156 121° Southeast 340 391 11,400 -750 Descending Jacksonville Center
Mon 12:34:03 AM 28.8342 -81.8261 121° Southeast 333 383 10,900 -759 Descending Jacksonville Center
Mon 12:34:22 AM 28.8167 -81.7833 115° Southeast 314 361 10,400 -1,671 Descending Orlando TRACON
Mon 12:35:22 AM 28.7667 -81.7000 124° Southeast 309 356 8,700 -1,600 Descending Orlando TRACON
Mon 12:36:22 AM 28.7333 -81.6167 115° Southeast 304 350 7,200 -1,400 Descending Orlando TRACON
Mon 12:37:22 AM 28.6833 -81.5500 131° Southeast 280 322 5,900 -1,150 Descending Orlando TRACON
Mon 12:38:22 AM 28.6500 -81.4667 114° Southeast 268 308 4,900 -750 Descending Orlando TRACON
Mon 12:39:22 AM 28.6167 -81.4167 127° Southeast 233 268 4,400 -650 Descending Orlando TRACON
Mon 12:40:22 AM 28.5833 -81.3500 120° Southeast 195 224 3,600 -900 Descending Orlando TRACON
Mon 12:41:22 AM 28.5667 -81.3000 111° Southeast 180 207 2,600 -950 Descending Orlando TRACON
Mon 12:42:22 AM 28.5167 -81.3000 180° South 169 194 1,700 -850 Descending Orlando TRACON
Mon 12:43:22 AM 28.4833 -81.3000 180° South 127 146 900 -800 Descending Orlando TRACON
Mon 12:45:00 AM 28.4294 -81.3090 180° South  Level Estimated
Mon 12:52:00 AM 28.4294 -81.3090 24° Northeast  Level Estimated
Mon 12:53:00 AM 28.4294 -81.3090 24° Northeast  Level Estimated
Mon 12:54:00 AM 28.4294 -81.3090 24° Northeast  Level Estimated
Mon 12:55:00 AM 28.4294 -81.3090 24° Northeast  Level Estimated

Login

Don't have an account? Register now (free) for customized features, flight alerts, and more!